sensor_id;sensor_type;location;lat;lon;timestamp;temperature;humidity
41469;DHT22;27206;47.032;15.484;2023-03-24T00:01:53;9.50;99.90
41469;DHT22;27206;47.032;15.484;2023-03-24T00:04:19;9.50;99.90
41469;DHT22;27206;47.032;15.484;2023-03-24T00:06:46;9.50;99.90
41469;DHT22;27206;47.032;15.484;2023-03-24T00:09:14;9.50;99.90
41469;DHT22;27206;47.032;15.484;2023-03-24T00:11:41;9.40;99.90
41469;DHT22;27206;47.032;15.484;2023-03-24T00:14:07;9.30;99.90
41469;DHT22;27206;47.032;15.484;2023-03-24T00:16:37;9.30;99.90
41469;DHT22;27206;47.032;15.484;2023-03-24T00:19:03;9.30;99.90
41469;DHT22;27206;47.032;15.484;2023-03-24T00:21:29;9.20;99.90
41469;DHT22;27206;47.032;15.484;2023-03-24T00:23:55;9.20;99.90
41469;DHT22;27206;47.032;15.484;2023-03-24T00:26:23;9.30;99.90
41469;DHT22;27206;47.032;15.484;2023-03-24T00:28:49;9.20;99.90
41469;DHT22;27206;47.032;15.484;2023-03-24T00:31:16;9.10;99.90
41469;DHT22;27206;47.032;15.484;2023-03-24T00:33:44;9.10;99.90
41469;DHT22;27206;47.032;15.484;2023-03-24T00:36:15;9.10;99.90
41469;DHT22;27206;47.032;15.484;2023-03-24T00:38:41;9.00;99.90
41469;DHT22;27206;47.032;15.484;2023-03-24T00:41:08;9.00;99.90
41469;DHT22;27206;47.032;15.484;2023-03-24T00:43:35;9.00;99.90
41469;DHT22;27206;47.032;15.484;2023-03-24T00:46:09;8.90;99.90
41469;DHT22;27206;47.032;15.484;2023-03-24T00:48:36;8.90;99.90
41469;DHT22;27206;47.032;15.484;2023-03-24T00:51:04;8.80;99.90
41469;DHT22;27206;47.032;15.484;2023-03-24T00:53:33;8.90;99.90
41469;DHT22;27206;47.032;15.484;2023-03-24T00:56:00;8.70;99.90
41469;DHT22;27206;47.032;15.484;2023-03-24T00:58:26;8.70;99.90
41469;DHT22;27206;47.032;15.484;2023-03-24T01:00:55;8.70;99.90
41469;DHT22;27206;47.032;15.484;2023-03-24T01:03:23;8.80;99.90
41469;DHT22;27206;47.032;15.484;2023-03-24T01:05:53;8.70;99.90
41469;DHT22;27206;47.032;15.484;2023-03-24T01:08:22;8.80;99.90
41469;DHT22;27206;47.032;15.484;2023-03-24T01:10:50;8.80;99.90
41469;DHT22;27206;47.032;15.484;2023-03-24T01:13:26;8.80;99.90
41469;DHT22;27206;47.032;15.484;2023-03-24T01:15:53;8.60;99.90
41469;DHT22;27206;47.032;15.484;2023-03-24T01:18:20;8.60;99.90
41469;DHT22;27206;47.032;15.484;2023-03-24T01:20:46;8.50;99.90
41469;DHT22;27206;47.032;15.484;2023-03-24T01:23:17;8.60;99.90
41469;DHT22;27206;47.032;15.484;2023-03-24T01:25:44;8.60;99.90
41469;DHT22;27206;47.032;15.484;2023-03-24T01:28:13;8.60;99.90
41469;DHT22;27206;47.032;15.484;2023-03-24T01:30:40;8.50;99.90
41469;DHT22;27206;47.032;15.484;2023-03-24T01:33:06;8.50;99.90
41469;DHT22;27206;47.032;15.484;2023-03-24T01:35:34;8.50;99.90
41469;DHT22;27206;47.032;15.484;2023-03-24T01:38:03;8.30;99.90
41469;DHT22;27206;47.032;15.484;2023-03-24T01:40:31;8.40;99.90
41469;DHT22;27206;47.032;15.484;2023-03-24T01:42:58;8.40;99.90
41469;DHT22;27206;47.032;15.484;2023-03-24T01:51:11;8.30;99.90
41469;DHT22;27206;47.032;15.484;2023-03-24T01:53:44;8.40;99.90
41469;DHT22;27206;47.032;15.484;2023-03-24T01:56:11;8.30;99.90
41469;DHT22;27206;47.032;15.484;2023-03-24T01:58:40;8.30;99.90
41469;DHT22;27206;47.032;15.484;2023-03-24T02:01:07;8.30;99.90
41469;DHT22;27206;47.032;15.484;2023-03-24T02:03:33;8.20;99.90
41469;DHT22;27206;47.032;15.484;2023-03-24T02:06:03;8.30;99.90
41469;DHT22;27206;47.032;15.484;2023-03-24T02:08:51;8.30;99.90
41469;DHT22;27206;47.032;15.484;2023-03-24T02:11:19;8.30;99.90
41469;DHT22;27206;47.032;15.484;2023-03-24T02:13:45;8.30;99.90
41469;DHT22;27206;47.032;15.484;2023-03-24T02:27:45;8.10;99.90
41469;DHT22;27206;47.032;15.484;2023-03-24T02:46:48;7.80;99.90
41469;DHT22;27206;47.032;15.484;2023-03-24T02:49:27;7.80;99.90
41469;DHT22;27206;47.032;15.484;2023-03-24T02:57:56;7.80;99.90
41469;DHT22;27206;47.032;15.484;2023-03-24T03:00:46;7.90;99.90
41469;DHT22;27206;47.032;15.484;2023-03-24T03:03:37;8.00;99.90
41469;DHT22;27206;47.032;15.484;2023-03-24T03:06:25;8.10;99.90
41469;DHT22;27206;47.032;15.484;2023-03-24T03:08:53;8.10;99.90
41469;DHT22;27206;47.032;15.484;2023-03-24T03:11:20;8.20;99.90
41469;DHT22;27206;47.032;15.484;2023-03-24T03:14:56;8.20;99.90
41469;DHT22;27206;47.032;15.484;2023-03-24T03:17:04;8.10;99.90
41469;DHT22;27206;47.032;15.484;2023-03-24T03:19:39;8.10;99.90
41469;DHT22;27206;47.032;15.484;2023-03-24T03:22:10;8.10;99.90
41469;DHT22;27206;47.032;15.484;2023-03-24T03:24:40;8.20;99.90
41469;DHT22;27206;47.032;15.484;2023-03-24T03:27:19;8.20;99.90
41469;DHT22;27206;47.032;15.484;2023-03-24T03:29:49;8.10;99.90
41469;DHT22;27206;47.032;15.484;2023-03-24T03:32:22;8.10;99.90
41469;DHT22;27206;47.032;15.484;2023-03-24T03:35:15;8.20;99.90
41469;DHT22;27206;47.032;15.484;2023-03-24T03:40:59;8.20;99.90
41469;DHT22;27206;47.032;15.484;2023-03-24T03:43:27;8.10;99.90
41469;DHT22;27206;47.032;15.484;2023-03-24T03:45:55;8.00;99.90
41469;DHT22;27206;47.032;15.484;2023-03-24T03:48:21;8.00;99.90
41469;DHT22;27206;47.032;15.484;2023-03-24T03:50:47;7.90;99.90
41469;DHT22;27206;47.032;15.484;2023-03-24T03:53:15;7.90;99.90
41469;DHT22;27206;47.032;15.484;2023-03-24T03:55:42;7.90;99.90
41469;DHT22;27206;47.032;15.484;2023-03-24T03:58:08;7.90;99.90
41469;DHT22;27206;47.032;15.484;2023-03-24T04:00:34;7.90;99.90
41469;DHT22;27206;47.032;15.484;2023-03-24T04:03:06;8.00;99.90
41469;DHT22;27206;47.032;15.484;2023-03-24T04:08:56;7.90;99.90
41469;DHT22;27206;47.032;15.484;2023-03-24T04:14:40;8.00;99.90
41469;DHT22;27206;47.032;15.484;2023-03-24T04:20:11;7.90;99.90
41469;DHT22;27206;47.032;15.484;2023-03-24T04:22:59;7.90;99.90
41469;DHT22;27206;47.032;15.484;2023-03-24T04:28:20;7.90;99.90
41469;DHT22;27206;47.032;15.484;2023-03-24T04:31:02;8.00;99.90
41469;DHT22;27206;47.032;15.484;2023-03-24T04:33:55;7.90;99.90
41469;DHT22;27206;47.032;15.484;2023-03-24T04:36:46;8.00;99.90
41469;DHT22;27206;47.032;15.484;2023-03-24T04:39:18;8.00;99.90
41469;DHT22;27206;47.032;15.484;2023-03-24T04:41:50;8.00;99.90
41469;DHT22;27206;47.032;15.484;2023-03-24T04:44:17;8.00;99.90
41469;DHT22;27206;47.032;15.484;2023-03-24T04:46:49;8.00;99.90
41469;DHT22;27206;47.032;15.484;2023-03-24T04:49:16;8.10;99.90
41469;DHT22;27206;47.032;15.484;2023-03-24T04:51:44;8.00;99.90
41469;DHT22;27206;47.032;15.484;2023-03-24T04:54:10;8.10;99.90
41469;DHT22;27206;47.032;15.484;2023-03-24T04:59:05;8.10;99.90
41469;DHT22;27206;47.032;15.484;2023-03-24T05:01:31;7.90;99.90
41469;DHT22;27206;47.032;15.484;2023-03-24T05:03:58;8.00;99.90
41469;DHT22;27206;47.032;15.484;2023-03-24T05:06:24;8.00;99.90
41469;DHT22;27206;47.032;15.484;2023-03-24T05:08:51;8.00;99.90
41469;DHT22;27206;47.032;15.484;2023-03-24T05:11:18;7.90;99.90
41469;DHT22;27206;47.032;15.484;2023-03-24T05:13:44;7.90;99.90
41469;DHT22;27206;47.032;15.484;2023-03-24T05:16:11;7.90;99.90
41469;DHT22;27206;47.032;15.484;2023-03-24T05:18:37;7.90;99.90
41469;DHT22;27206;47.032;15.484;2023-03-24T05:21:03;7.90;1.00
41469;DHT22;27206;47.032;15.484;2023-03-24T05:23:29;7.90;1.00
41469;DHT22;27206;47.032;15.484;2023-03-24T05:25:54;7.90;1.00
41469;DHT22;27206;47.032;15.484;2023-03-24T05:28:22;7.90;1.00
41469;DHT22;27206;47.032;15.484;2023-03-24T05:30:48;7.90;1.00
41469;DHT22;27206;47.032;15.484;2023-03-24T05:33:13;8.00;1.00
41469;DHT22;27206;47.032;15.484;2023-03-24T05:35:39;8.10;1.00
41469;DHT22;27206;47.032;15.484;2023-03-24T05:38:05;8.10;99.90
41469;DHT22;27206;47.032;15.484;2023-03-24T05:40:30;8.10;99.90
41469;DHT22;27206;47.032;15.484;2023-03-24T05:42:56;8.20;99.90
41469;DHT22;27206;47.032;15.484;2023-03-24T05:45:22;8.20;99.90
41469;DHT22;27206;47.032;15.484;2023-03-24T05:47:49;8.10;99.90
41469;DHT22;27206;47.032;15.484;2023-03-24T05:50:16;8.10;99.90
41469;DHT22;27206;47.032;15.484;2023-03-24T05:52:41;8.20;99.90
41469;DHT22;27206;47.032;15.484;2023-03-24T05:55:07;8.40;99.90
41469;DHT22;27206;47.032;15.484;2023-03-24T05:57:34;8.40;99.90
41469;DHT22;27206;47.032;15.484;2023-03-24T06:00:01;8.50;99.90
41469;DHT22;27206;47.032;15.484;2023-03-24T06:02:31;8.60;99.90
41469;DHT22;27206;47.032;15.484;2023-03-24T06:04:56;8.60;99.90
41469;DHT22;27206;47.032;15.484;2023-03-24T06:07:23;8.70;99.90
41469;DHT22;27206;47.032;15.484;2023-03-24T06:09:51;8.80;99.90
41469;DHT22;27206;47.032;15.484;2023-03-24T06:12:17;8.90;99.90
41469;DHT22;27206;47.032;15.484;2023-03-24T06:14:43;9.00;99.90
41469;DHT22;27206;47.032;15.484;2023-03-24T06:17:10;9.10;99.90
41469;DHT22;27206;47.032;15.484;2023-03-24T06:19:41;9.20;99.90
41469;DHT22;27206;47.032;15.484;2023-03-24T06:22:15;9.20;99.90
41469;DHT22;27206;47.032;15.484;2023-03-24T06:24:41;9.30;99.90
41469;DHT22;27206;47.032;15.484;2023-03-24T06:27:07;9.50;99.90
41469;DHT22;27206;47.032;15.484;2023-03-24T06:29:33;9.60;99.90
41469;DHT22;27206;47.032;15.484;2023-03-24T06:32:00;9.70;99.90
41469;DHT22;27206;47.032;15.484;2023-03-24T06:34:25;9.90;99.90
41469;DHT22;27206;47.032;15.484;2023-03-24T06:36:53;9.90;99.90
41469;DHT22;27206;47.032;15.484;2023-03-24T06:39:20;10.00;99.90
41469;DHT22;27206;47.032;15.484;2023-03-24T06:41:46;10.10;99.90
41469;DHT22;27206;47.032;15.484;2023-03-24T06:44:11;10.20;99.90
41469;DHT22;27206;47.032;15.484;2023-03-24T06:46:37;10.20;99.90
41469;DHT22;27206;47.032;15.484;2023-03-24T06:49:03;10.30;99.90
41469;DHT22;27206;47.032;15.484;2023-03-24T06:51:29;10.30;99.90
41469;DHT22;27206;47.032;15.484;2023-03-24T06:53:54;10.40;99.90
41469;DHT22;27206;47.032;15.484;2023-03-24T06:56:20;10.50;99.90
41469;DHT22;27206;47.032;15.484;2023-03-24T06:58:46;10.60;99.90
41469;DHT22;27206;47.032;15.484;2023-03-24T07:01:13;10.80;99.90
41469;DHT22;27206;47.032;15.484;2023-03-24T07:03:39;10.80;99.90
41469;DHT22;27206;47.032;15.484;2023-03-24T07:06:07;10.80;99.90
41469;DHT22;27206;47.032;15.484;2023-03-24T07:08:34;10.90;99.90
41469;DHT22;27206;47.032;15.484;2023-03-24T07:11:02;11.00;99.90
41469;DHT22;27206;47.032;15.484;2023-03-24T07:13:28;11.10;99.90
41469;DHT22;27206;47.032;15.484;2023-03-24T07:15:54;11.30;99.90
41469;DHT22;27206;47.032;15.484;2023-03-24T07:18:20;11.40;99.90
41469;DHT22;27206;47.032;15.484;2023-03-24T07:20:46;11.60;99.90
41469;DHT22;27206;47.032;15.484;2023-03-24T07:23:12;11.80;99.90
41469;DHT22;27206;47.032;15.484;2023-03-24T07:25:41;12.00;99.90
41469;DHT22;27206;47.032;15.484;2023-03-24T07:28:07;12.20;99.90
41469;DHT22;27206;47.032;15.484;2023-03-24T07:30:34;12.40;99.90
41469;DHT22;27206;47.032;15.484;2023-03-24T07:33:01;12.50;99.90
41469;DHT22;27206;47.032;15.484;2023-03-24T07:35:27;12.70;99.90
41469;DHT22;27206;47.032;15.484;2023-03-24T07:38:00;12.90;99.90
41469;DHT22;27206;47.032;15.484;2023-03-24T07:40:26;13.00;99.90
41469;DHT22;27206;47.032;15.484;2023-03-24T07:42:52;13.10;99.90
41469;DHT22;27206;47.032;15.484;2023-03-24T07:45:18;13.20;99.90
41469;DHT22;27206;47.032;15.484;2023-03-24T07:47:45;13.30;99.90
41469;DHT22;27206;47.032;15.484;2023-03-24T07:50:12;13.40;99.90
41469;DHT22;27206;47.032;15.484;2023-03-24T07:52:40;13.50;99.90
41469;DHT22;27206;47.032;15.484;2023-03-24T07:55:07;13.50;99.90
41469;DHT22;27206;47.032;15.484;2023-03-24T07:57:34;13.50;99.90
41469;DHT22;27206;47.032;15.484;2023-03-24T08:00:05;13.70;99.90
41469;DHT22;27206;47.032;15.484;2023-03-24T08:02:43;13.70;99.90
41469;DHT22;27206;47.032;15.484;2023-03-24T08:05:10;13.70;99.90
41469;DHT22;27206;47.032;15.484;2023-03-24T08:07:39;13.90;99.90
41469;DHT22;27206;47.032;15.484;2023-03-24T08:10:08;13.90;99.90
41469;DHT22;27206;47.032;15.484;2023-03-24T08:12:34;14.00;99.90
41469;DHT22;27206;47.032;15.484;2023-03-24T08:15:00;14.00;99.90
41469;DHT22;27206;47.032;15.484;2023-03-24T08:17:27;14.10;99.90
41469;DHT22;27206;47.032;15.484;2023-03-24T08:19:57;14.10;99.90
41469;DHT22;27206;47.032;15.484;2023-03-24T08:22:23;14.20;99.90
41469;DHT22;27206;47.032;15.484;2023-03-24T08:24:48;14.30;99.90
41469;DHT22;27206;47.032;15.484;2023-03-24T08:27:14;14.30;99.90
41469;DHT22;27206;47.032;15.484;2023-03-24T08:29:41;14.50;99.90
41469;DHT22;27206;47.032;15.484;2023-03-24T08:32:07;14.50;99.90
41469;DHT22;27206;47.032;15.484;2023-03-24T08:34:33;14.60;99.90
41469;DHT22;27206;47.032;15.484;2023-03-24T08:36:58;14.70;99.90
41469;DHT22;27206;47.032;15.484;2023-03-24T08:39:27;15.00;99.90
41469;DHT22;27206;47.032;15.484;2023-03-24T08:41:56;14.80;99.90
41469;DHT22;27206;47.032;15.484;2023-03-24T08:44:25;14.90;99.90
41469;DHT22;27206;47.032;15.484;2023-03-24T08:46:50;15.20;99.90
41469;DHT22;27206;47.032;15.484;2023-03-24T08:49:16;15.40;99.90
41469;DHT22;27206;47.032;15.484;2023-03-24T08:51:43;15.60;99.90
41469;DHT22;27206;47.032;15.484;2023-03-24T08:54:08;15.80;99.90
41469;DHT22;27206;47.032;15.484;2023-03-24T08:56:37;16.00;99.90
41469;DHT22;27206;47.032;15.484;2023-03-24T08:59:03;16.10;99.90
41469;DHT22;27206;47.032;15.484;2023-03-24T09:01:30;16.10;99.90
41469;DHT22;27206;47.032;15.484;2023-03-24T09:03:55;16.10;99.90
41469;DHT22;27206;47.032;15.484;2023-03-24T09:06:21;16.20;99.90
41469;DHT22;27206;47.032;15.484;2023-03-24T09:08:50;15.80;99.90
41469;DHT22;27206;47.032;15.484;2023-03-24T09:11:18;16.10;99.90
41469;DHT22;27206;47.032;15.484;2023-03-24T09:13:45;16.40;99.90
41469;DHT22;27206;47.032;15.484;2023-03-24T09:16:11;16.60;99.90
41469;DHT22;27206;47.032;15.484;2023-03-24T09:18:37;16.60;99.90
41469;DHT22;27206;47.032;15.484;2023-03-24T09:21:06;17.10;99.90
41469;DHT22;27206;47.032;15.484;2023-03-24T09:23:32;17.70;99.90
41469;DHT22;27206;47.032;15.484;2023-03-24T09:25:58;18.10;99.90
41469;DHT22;27206;47.032;15.484;2023-03-24T09:28:24;18.40;99.90
41469;DHT22;27206;47.032;15.484;2023-03-24T09:30:56;18.30;99.90
41469;DHT22;27206;47.032;15.484;2023-03-24T09:33:22;18.40;99.90
41469;DHT22;27206;47.032;15.484;2023-03-24T09:35:53;18.70;99.90
41469;DHT22;27206;47.032;15.484;2023-03-24T09:38:19;18.70;99.90
41469;DHT22;27206;47.032;15.484;2023-03-24T09:40:46;19.00;99.90
41469;DHT22;27206;47.032;15.484;2023-03-24T09:43:45;19.40;99.90
41469;DHT22;27206;47.032;15.484;2023-03-24T09:46:36;19.70;99.90
41469;DHT22;27206;47.032;15.484;2023-03-24T09:49:03;19.60;99.90
41469;DHT22;27206;47.032;15.484;2023-03-24T09:54:08;19.30;99.90
41469;DHT22;27206;47.032;15.484;2023-03-24T09:56:38;19.10;99.90
41469;DHT22;27206;47.032;15.484;2023-03-24T10:01:33;18.80;99.90
41469;DHT22;27206;47.032;15.484;2023-03-24T10:04:00;19.10;99.90
41469;DHT22;27206;47.032;15.484;2023-03-24T10:06:38;19.30;99.90
41469;DHT22;27206;47.032;15.484;2023-03-24T10:09:23;19.50;99.90
41469;DHT22;27206;47.032;15.484;2023-03-24T10:18:00;20.20;99.90
41469;DHT22;27206;47.032;15.484;2023-03-24T10:27:56;20.00;99.90
41469;DHT22;27206;47.032;15.484;2023-03-24T10:30:25;20.00;99.90
41469;DHT22;27206;47.032;15.484;2023-03-24T10:32:52;20.30;99.90
41469;DHT22;27206;47.032;15.484;2023-03-24T10:35:40;20.60;99.90
41469;DHT22;27206;47.032;15.484;2023-03-24T10:38:19;20.80;99.90
41469;DHT22;27206;47.032;15.484;2023-03-24T10:40:45;20.90;99.90
41469;DHT22;27206;47.032;15.484;2023-03-24T10:43:12;21.10;99.90
41469;DHT22;27206;47.032;15.484;2023-03-24T10:45:46;21.40;99.90
41469;DHT22;27206;47.032;15.484;2023-03-24T10:48:14;21.80;99.90
41469;DHT22;27206;47.032;15.484;2023-03-24T10:50:58;21.80;99.90
41469;DHT22;27206;47.032;15.484;2023-03-24T10:53:24;22.20;99.90
41469;DHT22;27206;47.032;15.484;2023-03-24T10:55:50;22.70;99.90
41469;DHT22;27206;47.032;15.484;2023-03-24T10:58:28;22.40;99.90
41469;DHT22;27206;47.032;15.484;2023-03-24T11:00:55;22.60;99.90
41469;DHT22;27206;47.032;15.484;2023-03-24T11:03:29;22.50;99.90
41469;DHT22;27206;47.032;15.484;2023-03-24T11:06:01;22.30;99.90
41469;DHT22;27206;47.032;15.484;2023-03-24T11:08:39;22.10;99.90
41469;DHT22;27206;47.032;15.484;2023-03-24T11:11:32;21.90;99.90
41469;DHT22;27206;47.032;15.484;2023-03-24T11:14:01;22.20;99.90
41469;DHT22;27206;47.032;15.484;2023-03-24T11:16:38;22.00;99.90
41469;DHT22;27206;47.032;15.484;2023-03-24T11:19:18;22.50;99.90
41469;DHT22;27206;47.032;15.484;2023-03-24T11:21:44;23.10;99.90
41469;DHT22;27206;47.032;15.484;2023-03-24T11:24:13;22.50;99.90
41469;DHT22;27206;47.032;15.484;2023-03-24T11:26:57;22.20;99.90
41469;DHT22;27206;47.032;15.484;2023-03-24T11:29:25;22.10;99.90
41469;DHT22;27206;47.032;15.484;2023-03-24T11:31:55;22.00;99.90
41469;DHT22;27206;47.032;15.484;2023-03-24T11:34:45;21.70;99.90
41469;DHT22;27206;47.032;15.484;2023-03-24T11:39:38;21.70;99.90
41469;DHT22;27206;47.032;15.484;2023-03-24T11:42:12;21.50;99.90
41469;DHT22;27206;47.032;15.484;2023-03-24T11:47:30;21.20;99.90
41469;DHT22;27206;47.032;15.484;2023-03-24T11:50:00;21.50;99.90
41469;DHT22;27206;47.032;15.484;2023-03-24T11:52:31;21.60;99.90
41469;DHT22;27206;47.032;15.484;2023-03-24T11:54:58;21.40;99.90
41469;DHT22;27206;47.032;15.484;2023-03-24T12:00:16;21.70;99.90
41469;DHT22;27206;47.032;15.484;2023-03-24T12:03:13;21.70;99.90
41469;DHT22;27206;47.032;15.484;2023-03-24T12:05:54;21.60;99.90
41469;DHT22;27206;47.032;15.484;2023-03-24T12:11:14;21.30;99.90
41469;DHT22;27206;47.032;15.484;2023-03-24T12:13:43;21.50;99.90
41469;DHT22;27206;47.032;15.484;2023-03-24T12:19:05;21.60;99.90
41469;DHT22;27206;47.032;15.484;2023-03-24T12:21:54;21.50;99.90
41469;DHT22;27206;47.032;15.484;2023-03-24T12:27:47;21.20;99.90
41469;DHT22;27206;47.032;15.484;2023-03-24T12:30:20;21.20;99.90
41469;DHT22;27206;47.032;15.484;2023-03-24T12:36:01;21.30;99.90
41469;DHT22;27206;47.032;15.484;2023-03-24T12:41:22;21.20;99.90
41469;DHT22;27206;47.032;15.484;2023-03-24T12:44:03;21.00;99.90
41469;DHT22;27206;47.032;15.484;2023-03-24T12:46:40;21.10;99.90
41469;DHT22;27206;47.032;15.484;2023-03-24T12:54:48;20.90;99.90
41469;DHT22;27206;47.032;15.484;2023-03-24T12:57:17;20.80;99.90
41469;DHT22;27206;47.032;15.484;2023-03-24T12:59:54;20.80;99.90
41469;DHT22;27206;47.032;15.484;2023-03-24T13:02:29;20.70;99.90
41469;DHT22;27206;47.032;15.484;2023-03-24T13:05:00;20.60;99.90
41469;DHT22;27206;47.032;15.484;2023-03-24T13:07:34;20.70;99.90
41469;DHT22;27206;47.032;15.484;2023-03-24T13:10:28;20.60;99.90
41469;DHT22;27206;47.032;15.484;2023-03-24T13:12:58;20.50;99.90
41469;DHT22;27206;47.032;15.484;2023-03-24T13:15:46;20.50;99.90
41469;DHT22;27206;47.032;15.484;2023-03-24T13:18:35;20.40;99.90
41469;DHT22;27206;47.032;15.484;2023-03-24T13:31:30;20.50;99.90
41469;DHT22;27206;47.032;15.484;2023-03-24T13:34:00;20.50;99.90
41469;DHT22;27206;47.032;15.484;2023-03-24T13:36:47;20.50;99.90
41469;DHT22;27206;47.032;15.484;2023-03-24T13:39:16;20.50;99.90
41469;DHT22;27206;47.032;15.484;2023-03-24T13:41:49;20.60;99.90
41469;DHT22;27206;47.032;15.484;2023-03-24T13:44:21;20.80;99.90
41469;DHT22;27206;47.032;15.484;2023-03-24T13:47:13;20.80;99.90
41469;DHT22;27206;47.032;15.484;2023-03-24T13:49:41;21.00;99.90
41469;DHT22;27206;47.032;15.484;2023-03-24T13:54:58;21.40;99.90
41469;DHT22;27206;47.032;15.484;2023-03-24T13:57:25;21.60;99.90
41469;DHT22;27206;47.032;15.484;2023-03-24T14:02:46;22.10;99.90
41469;DHT22;27206;47.032;15.484;2023-03-24T14:05:38;22.10;99.90
41469;DHT22;27206;47.032;15.484;2023-03-24T14:10:37;22.40;99.90
41469;DHT22;27206;47.032;15.484;2023-03-24T14:13:18;22.30;99.90
41469;DHT22;27206;47.032;15.484;2023-03-24T14:23:39;22.10;99.90
41469;DHT22;27206;47.032;15.484;2023-03-24T14:26:07;21.90;99.90
41469;DHT22;27206;47.032;15.484;2023-03-24T14:36:37;21.50;99.90
41469;DHT22;27206;47.032;15.484;2023-03-24T14:39:28;21.60;99.90
41469;DHT22;27206;47.032;15.484;2023-03-24T14:41:57;21.60;99.90
41469;DHT22;27206;47.032;15.484;2023-03-24T14:47:31;21.50;99.90
41469;DHT22;27206;47.032;15.484;2023-03-24T14:49:59;21.40;99.90
41469;DHT22;27206;47.032;15.484;2023-03-24T14:52:34;21.20;99.90
41469;DHT22;27206;47.032;15.484;2023-03-24T14:57:34;21.20;99.90
41469;DHT22;27206;47.032;15.484;2023-03-24T15:00:04;21.20;99.90
41469;DHT22;27206;47.032;15.484;2023-03-24T15:02:40;21.20;99.90
41469;DHT22;27206;47.032;15.484;2023-03-24T15:05:28;21.10;99.90
41469;DHT22;27206;47.032;15.484;2023-03-24T15:08:10;21.00;99.90
41469;DHT22;27206;47.032;15.484;2023-03-24T15:11:00;21.00;99.90
41469;DHT22;27206;47.032;15.484;2023-03-24T15:16:03;20.90;99.90
41469;DHT22;27206;47.032;15.484;2023-03-24T15:18:31;20.90;99.90
41469;DHT22;27206;47.032;15.484;2023-03-24T15:20:57;20.90;99.90
41469;DHT22;27206;47.032;15.484;2023-03-24T15:23:25;21.20;99.90
41469;DHT22;27206;47.032;15.484;2023-03-24T15:25:53;21.80;99.90
41469;DHT22;27206;47.032;15.484;2023-03-24T15:28:27;22.30;99.90
41469;DHT22;27206;47.032;15.484;2023-03-24T15:30:55;22.30;99.90
41469;DHT22;27206;47.032;15.484;2023-03-24T15:33:21;22.30;99.90
41469;DHT22;27206;47.032;15.484;2023-03-24T15:35:54;22.70;99.90
41469;DHT22;27206;47.032;15.484;2023-03-24T15:38:27;22.80;99.90
41469;DHT22;27206;47.032;15.484;2023-03-24T15:43:22;23.00;99.90
41469;DHT22;27206;47.032;15.484;2023-03-24T15:45:53;22.80;99.90
41469;DHT22;27206;47.032;15.484;2023-03-24T15:48:22;22.50;99.90
41469;DHT22;27206;47.032;15.484;2023-03-24T15:51:03;22.20;99.90
41469;DHT22;27206;47.032;15.484;2023-03-24T15:53:43;22.20;99.90
41469;DHT22;27206;47.032;15.484;2023-03-24T15:58:48;22.70;99.90
41469;DHT22;27206;47.032;15.484;2023-03-24T16:01:17;22.80;99.90
41469;DHT22;27206;47.032;15.484;2023-03-24T16:03:44;22.50;99.90
41469;DHT22;27206;47.032;15.484;2023-03-24T16:06:28;22.20;99.90
41469;DHT22;27206;47.032;15.484;2023-03-24T16:09:02;22.30;99.90
41469;DHT22;27206;47.032;15.484;2023-03-24T16:11:29;22.30;99.90
41469;DHT22;27206;47.032;15.484;2023-03-24T16:13:55;22.00;99.90
41469;DHT22;27206;47.032;15.484;2023-03-24T16:16:28;21.60;99.90
41469;DHT22;27206;47.032;15.484;2023-03-24T16:18:54;21.30;99.90
41469;DHT22;27206;47.032;15.484;2023-03-24T16:21:23;21.30;99.90
41469;DHT22;27206;47.032;15.484;2023-03-24T16:23:51;21.60;99.90
41469;DHT22;27206;47.032;15.484;2023-03-24T16:26:20;21.40;99.90
41469;DHT22;27206;47.032;15.484;2023-03-24T16:28:46;21.20;99.90
41469;DHT22;27206;47.032;15.484;2023-03-24T16:31:32;21.10;99.90
41469;DHT22;27206;47.032;15.484;2023-03-24T16:34:00;20.90;99.90
41469;DHT22;27206;47.032;15.484;2023-03-24T16:36:26;20.80;99.90
41469;DHT22;27206;47.032;15.484;2023-03-24T16:38:54;20.60;99.90
41469;DHT22;27206;47.032;15.484;2023-03-24T16:41:20;20.60;99.90
41469;DHT22;27206;47.032;15.484;2023-03-24T16:43:46;20.50;99.90
41469;DHT22;27206;47.032;15.484;2023-03-24T16:48:51;20.30;99.90
41469;DHT22;27206;47.032;15.484;2023-03-24T16:51:17;20.10;99.90
41469;DHT22;27206;47.032;15.484;2023-03-24T16:53:44;20.10;99.90
41469;DHT22;27206;47.032;15.484;2023-03-24T16:56:19;20.00;99.90
41469;DHT22;27206;47.032;15.484;2023-03-24T16:58:45;19.70;99.90
41469;DHT22;27206;47.032;15.484;2023-03-24T17:01:15;19.40;99.90
41469;DHT22;27206;47.032;15.484;2023-03-24T17:03:52;19.10;99.90
41469;DHT22;27206;47.032;15.484;2023-03-24T17:06:19;19.00;99.90
41469;DHT22;27206;47.032;15.484;2023-03-24T17:08:45;18.80;99.90
41469;DHT22;27206;47.032;15.484;2023-03-24T17:11:11;18.80;99.90
41469;DHT22;27206;47.032;15.484;2023-03-24T17:13:37;18.60;99.90
41469;DHT22;27206;47.032;15.484;2023-03-24T17:16:04;18.40;99.90
41469;DHT22;27206;47.032;15.484;2023-03-24T17:18:30;18.40;99.90
41469;DHT22;27206;47.032;15.484;2023-03-24T17:20:56;18.20;99.90
41469;DHT22;27206;47.032;15.484;2023-03-24T17:23:25;18.30;99.90
41469;DHT22;27206;47.032;15.484;2023-03-24T17:25:51;18.00;99.90
41469;DHT22;27206;47.032;15.484;2023-03-24T17:28:17;17.80;99.90
41469;DHT22;27206;47.032;15.484;2023-03-24T17:30:43;17.70;99.90
41469;DHT22;27206;47.032;15.484;2023-03-24T17:33:12;17.70;99.90
41469;DHT22;27206;47.032;15.484;2023-03-24T17:35:38;17.70;99.90
41469;DHT22;27206;47.032;15.484;2023-03-24T17:38:03;17.60;99.90
41469;DHT22;27206;47.032;15.484;2023-03-24T17:40:29;17.50;99.90
41469;DHT22;27206;47.032;15.484;2023-03-24T17:42:55;17.50;99.90
41469;DHT22;27206;47.032;15.484;2023-03-24T17:45:21;17.40;99.90
41469;DHT22;27206;47.032;15.484;2023-03-24T17:47:50;17.20;99.90
41469;DHT22;27206;47.032;15.484;2023-03-24T17:50:19;17.10;99.90
41469;DHT22;27206;47.032;15.484;2023-03-24T17:52:46;17.00;99.90
41469;DHT22;27206;47.032;15.484;2023-03-24T17:55:14;16.90;99.90
41469;DHT22;27206;47.032;15.484;2023-03-24T17:57:40;16.90;99.90
41469;DHT22;27206;47.032;15.484;2023-03-24T18:00:07;16.90;99.90
41469;DHT22;27206;47.032;15.484;2023-03-24T18:02:39;16.90;99.90
41469;DHT22;27206;47.032;15.484;2023-03-24T18:05:05;16.80;99.90
41469;DHT22;27206;47.032;15.484;2023-03-24T18:07:32;16.50;99.90
41469;DHT22;27206;47.032;15.484;2023-03-24T18:09:58;16.40;99.90
41469;DHT22;27206;47.032;15.484;2023-03-24T18:12:24;16.40;99.90
41469;DHT22;27206;47.032;15.484;2023-03-24T18:14:50;16.30;99.90
41469;DHT22;27206;47.032;15.484;2023-03-24T18:17:16;16.20;99.90